createdAt,value
2022-10-05T00:00:29.052Z,9.757888
2022-10-05T00:01:29.135Z,9.757707
2022-10-05T00:02:29.069Z,9.757817
2022-10-05T00:03:29.034Z,9.757941
2022-10-05T00:04:29.034Z,9.757772
2022-10-05T00:05:29.054Z,9.757596
2022-10-05T00:06:29.004Z,9.757710
2022-10-05T00:07:29.025Z,9.757335
2022-10-05T00:08:28.983Z,9.757105
2022-10-05T00:09:28.986Z,9.755182
2022-10-05T00:10:28.978Z,9.755452
2022-10-05T00:11:28.967Z,9.756902
2022-10-05T00:12:28.985Z,9.757653
2022-10-05T00:13:28.947Z,9.757716
2022-10-05T00:14:28.937Z,9.757645
2022-10-05T00:15:28.928Z,9.757625
2022-10-05T00:16:28.951Z,9.757499
2022-10-05T00:17:28.939Z,9.757611
2022-10-05T00:18:28.905Z,9.757714
2022-10-05T00:19:28.894Z,9.757668
2022-10-05T00:20:28.897Z,9.757916
2022-10-05T00:21:28.897Z,9.757932
2022-10-05T00:22:28.900Z,9.757842
2022-10-05T00:23:28.857Z,9.757609
2022-10-05T00:24:28.849Z,9.757558
2022-10-05T00:25:28.833Z,9.757608
2022-10-05T00:26:28.825Z,9.757517
2022-10-05T00:27:28.853Z,9.757355
2022-10-05T00:28:28.866Z,9.757347
2022-10-05T00:29:28.803Z,9.757339
2022-10-05T00:30:28.801Z,9.757269
2022-10-05T00:31:28.812Z,9.757458
2022-10-05T00:32:28.810Z,9.757559
2022-10-05T00:33:28.781Z,9.757378
2022-10-05T00:34:28.773Z,9.757257
2022-10-05T00:35:28.764Z,9.757522
2022-10-05T00:36:28.753Z,9.757673
2022-10-05T00:37:28.785Z,9.757380
2022-10-05T00:38:28.731Z,9.757334
2022-10-05T00:39:28.728Z,9.757388
2022-10-05T00:40:28.730Z,9.757416
2022-10-05T00:41:28.711Z,9.757364
2022-10-05T00:42:28.735Z,9.757448
2022-10-05T00:43:28.693Z,9.757497
2022-10-05T00:44:28.690Z,9.757522
2022-10-05T00:45:28.764Z,9.757380
2022-10-05T00:46:28.670Z,9.757409
2022-10-05T00:47:28.687Z,9.757463
2022-10-05T00:48:28.662Z,9.757518
2022-10-05T00:49:28.640Z,9.757506
2022-10-05T00:50:28.641Z,9.757402
2022-10-05T00:51:28.627Z,9.757357
2022-10-05T00:52:28.648Z,9.757425
2022-10-05T00:53:28.611Z,9.757468
2022-10-05T00:54:28.604Z,9.757514
2022-10-05T00:55:28.594Z,9.757612
2022-10-05T00:56:28.587Z,9.757444
2022-10-05T00:57:28.617Z,9.757401
2022-10-05T00:58:28.573Z,9.757462
2022-10-05T00:59:28.567Z,9.757499
2022-10-05T01:00:28.552Z,9.757539
2022-10-05T01:01:28.667Z,9.757464
2022-10-05T01:02:31.876Z,9.757484
2022-10-05T01:03:29.549Z,9.757483
2022-10-05T01:04:28.525Z,9.757507
2022-10-05T01:05:28.514Z,9.757615
2022-10-05T01:06:28.500Z,9.757537
2022-10-05T01:07:28.486Z,9.757526
2022-10-05T01:08:28.521Z,9.757463
2022-10-05T01:09:28.496Z,9.757634
2022-10-05T01:10:28.475Z,9.757445
2022-10-05T01:11:28.457Z,9.757491
2022-10-05T01:12:28.454Z,9.757491
2022-10-05T01:13:28.463Z,9.757487
2022-10-05T01:14:29.448Z,9.757482
2022-10-05T01:15:28.435Z,9.757483
2022-10-05T01:16:28.457Z,9.757423
2022-10-05T01:17:28.407Z,9.757303
2022-10-05T01:18:28.428Z,9.757427
2022-10-05T01:19:28.392Z,9.757353
2022-10-05T01:20:28.383Z,9.757374
2022-10-05T01:21:28.373Z,9.757374
2022-10-05T01:22:28.357Z,9.757437
2022-10-05T01:23:28.389Z,9.757333
2022-10-05T01:24:28.346Z,9.757367
2022-10-05T01:25:28.336Z,9.757406
2022-10-05T01:26:28.323Z,9.757452
2022-10-05T01:27:28.321Z,9.757409
2022-10-05T01:28:28.457Z,9.757321
2022-10-05T01:29:28.346Z,9.757431
2022-10-05T01:30:28.292Z,9.757443
2022-10-05T01:31:28.381Z,9.757513
2022-10-05T01:32:28.285Z,9.757373
2022-10-05T01:33:28.272Z,9.757425
2022-10-05T01:34:28.292Z,9.757480
2022-10-05T01:35:28.262Z,9.757506
2022-10-05T01:36:28.245Z,9.757465
2022-10-05T01:37:28.267Z,9.757591
2022-10-05T01:38:28.265Z,9.757591
2022-10-05T01:39:28.228Z,9.757552
2022-10-05T01:40:28.214Z,9.757486
2022-10-05T01:41:28.198Z,9.757422
2022-10-05T01:42:28.194Z,9.757358
2022-10-05T01:43:28.213Z,9.757463
2022-10-05T01:44:28.183Z,9.757490
2022-10-05T01:45:28.217Z,9.757473
2022-10-05T01:46:28.164Z,9.757359
2022-10-05T01:47:28.163Z,9.757599
2022-10-05T01:48:28.181Z,9.757555
2022-10-05T01:49:28.145Z,9.757418
2022-10-05T01:50:28.134Z,9.757579
2022-10-05T01:51:28.130Z,9.757492
2022-10-05T01:52:28.113Z,9.757512
2022-10-05T01:53:28.148Z,9.757615
2022-10-05T01:54:28.115Z,9.757669
2022-10-05T01:55:28.087Z,9.757799
2022-10-05T01:56:28.080Z,9.757577
2022-10-05T01:57:28.076Z,9.757499
2022-10-05T01:58:28.097Z,9.757553
2022-10-05T01:59:28.061Z,9.757769
2022-10-05T02:00:28.048Z,9.757640
2022-10-05T02:01:28.095Z,9.757388
2022-10-05T02:02:28.076Z,9.757355
2022-10-05T02:03:28.067Z,9.757513
2022-10-05T02:04:59.882Z,9.757487
2022-10-05T02:05:30.015Z,9.757561
2022-10-05T02:06:28.007Z,9.757267
2022-10-05T02:07:27.998Z,9.757519
2022-10-05T02:08:28.016Z,9.757405
2022-10-05T02:09:27.982Z,9.756956
2022-10-05T02:10:27.968Z,9.757392
2022-10-05T02:11:27.970Z,9.757676
2022-10-05T02:12:27.950Z,9.757586
2022-10-05T02:13:27.977Z,9.757467
2022-10-05T02:14:27.937Z,9.757564
2022-10-05T02:15:27.931Z,9.757618
2022-10-05T02:16:27.920Z,9.757701
2022-10-05T02:17:27.938Z,9.758108
2022-10-05T02:18:27.931Z,9.757869
2022-10-05T02:19:27.890Z,9.757803
2022-10-05T02:20:27.881Z,9.757625
2022-10-05T02:21:27.885Z,9.757522
2022-10-05T02:22:27.859Z,9.757568
2022-10-05T02:23:27.876Z,9.757461
2022-10-05T02:24:28.873Z,9.757529
2022-10-05T02:25:27.834Z,9.757459
2022-10-05T02:26:27.836Z,9.757488
2022-10-05T02:27:27.821Z,9.757432
2022-10-05T02:28:27.912Z,9.757491
2022-10-05T02:29:27.803Z,9.757656
2022-10-05T02:30:27.794Z,9.757611
2022-10-05T02:31:27.832Z,9.757423
2022-10-05T02:32:27.776Z,9.757898
2022-10-05T02:33:27.794Z,9.757831
2022-10-05T02:34:27.767Z,9.757310
2022-10-05T02:35:27.753Z,9.757268
2022-10-05T02:36:27.743Z,9.757238
2022-10-05T02:37:27.744Z,9.757516
2022-10-05T02:38:27.771Z,9.757586
2022-10-05T02:39:27.721Z,9.758107
2022-10-05T02:40:27.708Z,9.757294
2022-10-05T02:41:27.702Z,9.757329
2022-10-05T02:42:27.691Z,9.757616
2022-10-05T02:43:27.711Z,9.757730
2022-10-05T02:44:27.680Z,9.757733
2022-10-05T02:45:27.666Z,9.757773
2022-10-05T02:46:28.655Z,9.757749
2022-10-05T02:47:27.657Z,9.757685
2022-10-05T02:48:27.670Z,9.757546
2022-10-05T02:49:27.652Z,9.757556
2022-10-05T02:50:27.634Z,9.757496
2022-10-05T02:51:27.635Z,9.757559
2022-10-05T02:52:27.637Z,9.757075
2022-10-05T02:53:27.635Z,9.757460
2022-10-05T02:54:27.595Z,9.757567
2022-10-05T02:55:27.594Z,9.757647
2022-10-05T02:56:27.574Z,9.757454
2022-10-05T02:57:27.577Z,9.757359
2022-10-05T02:58:27.603Z,9.757644
2022-10-05T02:59:27.555Z,9.757540
2022-10-05T03:00:27.542Z,9.757494
2022-10-05T03:01:27.598Z,9.757426
2022-10-05T03:02:27.601Z,9.757428
2022-10-05T03:03:27.549Z,9.757500
2022-10-05T03:04:27.520Z,9.757488
2022-10-05T03:05:27.504Z,9.757526
2022-10-05T03:06:27.500Z,9.757558
2022-10-05T03:07:27.495Z,9.757621
2022-10-05T03:08:27.511Z,9.757683
2022-10-05T03:09:27.477Z,9.757527
2022-10-05T03:10:27.466Z,9.757253
2022-10-05T03:11:27.468Z,9.757325
2022-10-05T03:12:27.452Z,9.757300
2022-10-05T03:13:27.471Z,9.757309
2022-10-05T03:14:27.429Z,9.757311
2022-10-05T03:15:27.418Z,9.757404
2022-10-05T03:16:27.498Z,9.757375
2022-10-05T03:17:27.409Z,9.757369
2022-10-05T03:18:30.591Z,9.757191
2022-10-05T03:19:28.383Z,9.757525
2022-10-05T03:20:27.381Z,9.757456
2022-10-05T03:21:27.376Z,9.757347
2022-10-05T03:22:27.364Z,9.757540
2022-10-05T03:23:27.396Z,9.757502
2022-10-05T03:24:27.353Z,9.757293
2022-10-05T03:25:27.346Z,9.757051
2022-10-05T03:26:27.327Z,9.757396
2022-10-05T03:27:27.322Z,9.757407
2022-10-05T03:28:27.367Z,9.756075
2022-10-05T03:29:27.334Z,9.754778
2022-10-05T03:30:27.290Z,9.757071
2022-10-05T03:31:27.334Z,9.757467
2022-10-05T03:32:27.285Z,9.757485
2022-10-05T03:33:27.279Z,9.757394
2022-10-05T03:34:27.293Z,9.757381
2022-10-05T03:35:27.251Z,9.757462
2022-10-05T03:36:27.245Z,9.757376
2022-10-05T03:37:27.234Z,9.757280
2022-10-05T03:38:27.226Z,9.757508
2022-10-05T03:39:27.249Z,9.757407
2022-10-05T03:40:27.210Z,9.757388
2022-10-05T03:41:27.194Z,9.757342
2022-10-05T03:42:28.200Z,9.757261
2022-10-05T03:43:27.193Z,9.757324
2022-10-05T03:44:27.212Z,9.757464
2022-10-05T03:45:27.180Z,9.757418
2022-10-05T03:46:27.195Z,9.757323
2022-10-05T03:47:27.174Z,9.757355
2022-10-05T03:48:27.152Z,9.757469
2022-10-05T03:49:27.172Z,9.757465
2022-10-05T03:50:27.136Z,9.757452
2022-10-05T03:51:27.121Z,9.757464
2022-10-05T03:52:27.112Z,9.757379
2022-10-05T03:53:27.100Z,9.757374
2022-10-05T03:54:27.121Z,9.757334
2022-10-05T03:55:27.082Z,9.757384
2022-10-05T03:56:27.075Z,9.757380
2022-10-05T03:57:27.070Z,9.757347
2022-10-05T03:58:27.056Z,9.757360
2022-10-05T03:59:32.274Z,9.757396
2022-10-05T04:00:29.038Z,9.757299
2022-10-05T04:01:27.095Z,9.757436
2022-10-05T04:02:27.062Z,9.757311
2022-10-05T04:03:27.022Z,9.757420
2022-10-05T04:04:27.099Z,9.757398
2022-10-05T04:05:27.005Z,9.757199
2022-10-05T04:06:26.988Z,9.757347
2022-10-05T04:07:26.974Z,9.757249
2022-10-05T04:08:26.968Z,9.757112
2022-10-05T04:09:26.994Z,9.757738
2022-10-05T04:10:27.028Z,9.757485
2022-10-05T04:11:26.952Z,9.757958
2022-10-05T04:12:26.939Z,9.758299
2022-10-05T04:13:26.929Z,9.758024
2022-10-05T04:14:26.952Z,9.757925
2022-10-05T04:15:26.915Z,9.757950
2022-10-05T04:16:26.934Z,9.757825
2022-10-05T04:17:26.899Z,9.757516
2022-10-05T04:18:26.884Z,9.757371
2022-10-05T04:19:26.909Z,9.757286
2022-10-05T04:20:26.874Z,9.757270
2022-10-05T04:21:26.876Z,9.757472
2022-10-05T04:22:26.849Z,9.757332
2022-10-05T04:23:26.840Z,9.757367
2022-10-05T04:24:26.860Z,9.757319
2022-10-05T04:25:26.822Z,9.757419
2022-10-05T04:26:26.822Z,9.757306
2022-10-05T04:27:26.799Z,9.757413
2022-10-05T04:28:31.972Z,9.757358
2022-10-05T04:29:27.832Z,9.757487
2022-10-05T04:30:26.822Z,9.757433
2022-10-05T04:31:26.803Z,9.757199
2022-10-05T04:32:26.772Z,9.757449
2022-10-05T04:33:26.755Z,9.757443
2022-10-05T04:34:26.758Z,9.757566
2022-10-05T04:35:26.773Z,9.757584
2022-10-05T04:36:26.750Z,9.757527
2022-10-05T04:37:26.724Z,9.757361
2022-10-05T04:38:26.716Z,9.757463
2022-10-05T04:39:26.707Z,9.757485
2022-10-05T04:40:26.729Z,9.757448
2022-10-05T04:41:26.709Z,9.757298
2022-10-05T04:42:26.687Z,9.757432
2022-10-05T04:43:26.676Z,9.757327
2022-10-05T04:44:26.674Z,9.757745
2022-10-05T04:45:26.679Z,9.757713
2022-10-05T04:46:26.703Z,9.757547
2022-10-05T04:47:26.651Z,9.757377
2022-10-05T04:48:26.628Z,9.757403
2022-10-05T04:49:26.628Z,9.757373
2022-10-05T04:50:26.671Z,9.757421
2022-10-05T04:51:26.608Z,9.757485
2022-10-05T04:52:26.601Z,9.757543
2022-10-05T04:53:26.591Z,9.757508
2022-10-05T04:54:26.593Z,9.757751
2022-10-05T04:55:26.606Z,9.757542
2022-10-05T04:56:26.570Z,9.757512
2022-10-05T04:57:26.566Z,9.757527
2022-10-05T04:58:26.553Z,9.757413
2022-10-05T04:59:26.545Z,9.757463
2022-10-05T05:00:26.604Z,9.757361
2022-10-05T05:01:26.550Z,9.757465
2022-10-05T05:02:26.518Z,9.757562
2022-10-05T05:03:26.549Z,9.757678
2022-10-05T05:04:26.502Z,9.757694
2022-10-05T05:05:26.524Z,9.757606
2022-10-05T05:06:26.480Z,9.757786
2022-10-05T05:07:26.476Z,9.757601
2022-10-05T05:08:26.482Z,9.757720
2022-10-05T05:09:26.456Z,9.757781
2022-10-05T05:10:26.487Z,9.757687
2022-10-05T05:11:26.440Z,9.757551
2022-10-05T05:12:26.440Z,9.757704
2022-10-05T05:13:26.429Z,9.757483
2022-10-05T05:14:26.414Z,9.757513
2022-10-05T05:15:26.476Z,9.757460
2022-10-05T05:16:26.419Z,9.757354
2022-10-05T05:17:26.393Z,9.757430
2022-10-05T05:18:26.392Z,9.757436
2022-10-05T05:19:26.372Z,9.757430
2022-10-05T05:20:26.392Z,9.757473
2022-10-05T05:21:26.361Z,9.757467
2022-10-05T05:39:17.164Z,9.755848
2022-10-05T05:40:17.157Z,9.756147
2022-10-05T05:41:17.181Z,9.756726
2022-10-05T05:42:17.142Z,9.756815
2022-10-05T05:43:17.140Z,9.756935
2022-10-05T05:44:17.138Z,9.757038
2022-10-05T05:45:17.125Z,9.757427
2022-10-05T05:46:17.206Z,9.757488
2022-10-05T05:47:17.299Z,9.757746
2022-10-05T05:48:17.096Z,9.758024
2022-10-05T05:49:17.091Z,9.757722
2022-10-05T05:50:17.087Z,9.757657
2022-10-05T05:51:17.102Z,9.757760
2022-10-05T05:52:17.088Z,9.757731
2022-10-05T05:53:17.064Z,9.757686
2022-10-05T05:54:17.048Z,9.757548
2022-10-05T05:55:17.037Z,9.757600
2022-10-05T05:56:17.060Z,9.757233
2022-10-05T05:57:17.069Z,9.757354
2022-10-05T05:58:17.012Z,9.757380
2022-10-05T05:59:17.004Z,9.757459
2022-10-05T06:00:16.996Z,9.757257
2022-10-05T06:01:32.289Z,9.757402
2022-10-05T06:02:19.069Z,9.757484
2022-10-05T06:03:17.130Z,9.757570
2022-10-05T06:04:16.964Z,9.757690
2022-10-05T06:05:16.957Z,9.757708
2022-10-05T06:06:16.969Z,9.757586
2022-10-05T06:07:16.939Z,9.757538
2022-10-05T06:08:16.929Z,9.757239
2022-10-05T06:09:16.917Z,9.757071
2022-10-05T06:10:16.914Z,9.757145
2022-10-05T06:11:16.935Z,9.757339
2022-10-05T06:12:16.900Z,9.757405
2022-10-05T06:13:16.889Z,9.757524
2022-10-05T06:14:16.886Z,9.757619
2022-10-05T06:15:16.869Z,9.757569
2022-10-05T06:16:16.943Z,9.757532
2022-10-05T06:17:16.856Z,9.757440
2022-10-05T06:18:16.843Z,9.757495
2022-10-05T06:19:16.850Z,9.757336
2022-10-05T06:20:16.830Z,9.757431
2022-10-05T06:21:16.854Z,9.757410
2022-10-05T06:22:16.812Z,9.757404
2022-10-05T06:23:16.800Z,9.757325
2022-10-05T06:24:16.807Z,9.757220
2022-10-05T06:25:16.783Z,9.757332
2022-10-05T06:26:16.777Z,9.757469
2022-10-05T06:27:16.803Z,9.757493
2022-10-05T06:28:16.838Z,9.757449
2022-10-05T06:29:16.754Z,9.757401
2022-10-05T06:30:16.747Z,9.757412
2022-10-05T06:31:16.800Z,9.757373
2022-10-05T06:32:16.740Z,9.757418
2022-10-05T06:33:16.720Z,9.757432
2022-10-05T06:34:16.714Z,9.757442
2022-10-05T06:35:16.712Z,9.757399
2022-10-05T06:36:16.731Z,9.757454
2022-10-05T06:37:16.686Z,9.757434
2022-10-05T06:38:16.673Z,9.757484
2022-10-05T06:39:16.676Z,9.757499
2022-10-05T06:40:16.665Z,9.757448
2022-10-05T06:41:16.699Z,9.757416
2022-10-05T06:42:16.651Z,9.757447
2022-10-05T06:43:16.643Z,9.757410
2022-10-05T06:44:16.632Z,9.757430
2022-10-05T06:45:17.618Z,9.757414
2022-10-05T06:46:16.687Z,9.757468
2022-10-05T06:47:16.602Z,9.757452
2022-10-05T06:48:16.596Z,9.757461
2022-10-05T06:49:16.593Z,9.757449
2022-10-05T06:50:16.578Z,9.757417
2022-10-05T06:51:16.591Z,9.757434
2022-10-05T06:52:16.593Z,9.757388
2022-10-05T06:53:16.548Z,9.757461
2022-10-05T06:54:16.548Z,9.757454
2022-10-05T06:55:16.535Z,9.757424
2022-10-05T06:56:16.528Z,9.757403
2022-10-05T06:57:16.552Z,9.757392
2022-10-05T06:58:16.526Z,9.757417
2022-10-05T06:59:16.505Z,9.757401
2022-10-05T07:00:16.492Z,9.757407
2022-10-05T07:01:16.508Z,9.757426
2022-10-05T07:02:16.543Z,9.757411
2022-10-05T07:03:16.472Z,9.757378
2022-10-05T07:04:16.457Z,9.757446
2022-10-05T07:05:16.450Z,9.757444
2022-10-05T07:06:16.442Z,9.757396
2022-10-05T07:07:16.486Z,9.757442
2022-10-05T07:08:16.417Z,9.757424
2022-10-05T07:09:16.410Z,9.757457
2022-10-05T07:10:16.403Z,9.757412
2022-10-05T07:11:16.402Z,9.757431
2022-10-05T07:12:16.434Z,9.757424
2022-10-05T07:13:16.379Z,9.757408
2022-10-05T07:14:16.378Z,9.757443
2022-10-05T07:15:16.365Z,9.757390
2022-10-05T07:16:16.496Z,9.757372
2022-10-05T07:17:16.351Z,9.757469
2022-10-05T07:18:16.342Z,9.757417
2022-10-05T07:19:16.327Z,9.757361
2022-10-05T07:20:16.320Z,9.757367
2022-10-05T07:21:16.350Z,9.757503
2022-10-05T07:22:16.316Z,9.757101
2022-10-05T07:23:16.299Z,9.757320
2022-10-05T07:24:16.293Z,9.757442
2022-10-05T07:25:16.286Z,9.757413
2022-10-05T07:26:16.314Z,9.757479
2022-10-05T07:27:16.264Z,9.757314
2022-10-05T07:28:16.336Z,9.757500
2022-10-05T07:29:16.259Z,9.757437
2022-10-05T07:30:16.333Z,9.757607
2022-10-05T07:31:16.320Z,9.757545
2022-10-05T07:32:16.229Z,9.757356
2022-10-05T07:33:16.219Z,9.757453
2022-10-05T07:34:16.245Z,9.757389
2022-10-05T07:35:16.213Z,9.757619
2022-10-05T07:36:16.239Z,9.757416
2022-10-05T07:37:16.218Z,9.757523
2022-10-05T07:38:16.178Z,9.757493
2022-10-05T07:39:16.230Z,9.757763
2022-10-05T07:40:16.163Z,9.757565
2022-10-05T07:41:16.161Z,9.757439
2022-10-05T07:42:16.173Z,9.757520
2022-10-05T07:43:16.138Z,9.757298
2022-10-05T07:44:16.133Z,9.757337
2022-10-05T07:45:16.123Z,9.757631
2022-10-05T07:46:16.216Z,9.757217
2022-10-05T07:47:16.102Z,9.757499
2022-10-05T07:48:16.094Z,9.757661
2022-10-05T07:49:16.088Z,9.757777
2022-10-05T07:50:16.126Z,9.757429
2022-10-05T07:51:16.095Z,9.757312
2022-10-05T07:52:16.056Z,9.757578
2022-10-05T07:53:16.051Z,9.757516
2022-10-05T07:54:16.047Z,9.757483
2022-10-05T07:55:16.026Z,9.757498
2022-10-05T07:56:16.043Z,9.757675
2022-10-05T07:57:16.015Z,9.757769
2022-10-05T07:58:16.010Z,9.757721
2022-10-05T07:59:15.993Z,9.757578
2022-10-05T08:00:15.987Z,9.757418
2022-10-05T08:01:16.015Z,9.757508
2022-10-05T08:02:16.115Z,9.757876
2022-10-05T08:03:16.041Z,9.757729
2022-10-05T08:04:15.954Z,9.757568
2022-10-05T08:05:15.938Z,9.757458
2022-10-05T08:06:15.962Z,9.757540
2022-10-05T08:07:16.004Z,9.757547
2022-10-05T08:08:18.179Z,9.757397
2022-10-05T08:09:15.910Z,9.757349
2022-10-05T08:10:15.908Z,9.757391
2022-10-05T08:11:15.926Z,9.757524
2022-10-05T08:12:15.889Z,9.757570
2022-10-05T08:13:15.879Z,9.757534
2022-10-05T08:14:15.866Z,9.757470
2022-10-05T08:15:15.860Z,9.757261
2022-10-05T08:16:15.958Z,9.757365
2022-10-05T08:17:15.846Z,9.757379
2022-10-05T08:18:15.833Z,9.757388
2022-10-05T08:19:15.831Z,9.757461
2022-10-05T08:20:15.818Z,9.757502
2022-10-05T08:21:15.836Z,9.757463
2022-10-05T08:22:15.801Z,9.757421
2022-10-05T08:23:15.788Z,9.757435
2022-10-05T08:24:15.782Z,9.757495
2022-10-05T08:25:15.813Z,9.757364
2022-10-05T08:26:15.875Z,9.757357
2022-10-05T08:27:15.757Z,9.757442
2022-10-05T08:28:15.812Z,9.757522
2022-10-05T08:29:15.742Z,9.757534
2022-10-05T08:30:15.734Z,9.757517
2022-10-05T08:31:15.786Z,9.757478
2022-10-05T08:32:15.729Z,9.757803
2022-10-05T08:33:15.698Z,9.757654
2022-10-05T08:34:15.712Z,9.757463
2022-10-05T08:35:15.676Z,9.757451
2022-10-05T08:36:15.708Z,9.757479
2022-10-05T08:37:15.667Z,9.757405
2022-10-05T08:38:15.664Z,9.757462
2022-10-05T08:39:15.654Z,9.757443
2022-10-05T08:40:15.646Z,9.757469
2022-10-05T08:41:15.665Z,9.757580
2022-10-05T08:42:15.624Z,9.757488
2022-10-05T08:43:15.618Z,9.757726
2022-10-05T08:44:15.621Z,9.757661
2022-10-05T08:45:15.612Z,9.757649
2022-10-05T08:46:15.666Z,9.757425
2022-10-05T08:47:15.584Z,9.757455
2022-10-05T08:48:15.583Z,9.757477
2022-10-05T08:49:15.584Z,9.757544
2022-10-05T08:50:15.564Z,9.757712
2022-10-05T08:51:15.595Z,9.757582
2022-10-05T08:52:15.549Z,9.757500
2022-10-05T08:53:15.568Z,9.757494
2022-10-05T08:54:15.526Z,9.757630
2022-10-05T08:55:15.519Z,9.757650
2022-10-05T08:56:19.837Z,9.757673
2022-10-05T08:57:17.501Z,9.757438
2022-10-05T08:58:15.497Z,9.757485
2022-10-05T08:59:15.495Z,9.757427
2022-10-05T09:00:15.475Z,9.757576
2022-10-05T09:01:15.524Z,9.757590
2022-10-05T09:02:15.497Z,9.757138
2022-10-05T09:03:15.454Z,9.757153
2022-10-05T09:04:15.441Z,9.757568
2022-10-05T09:05:15.433Z,9.757550
2022-10-05T09:06:15.451Z,9.757717
2022-10-05T09:07:15.421Z,9.757347
2022-10-05T09:08:15.408Z,9.757371
2022-10-05T09:09:15.398Z,9.757459
2022-10-05T09:10:15.394Z,9.757454
2022-10-05T09:11:15.411Z,9.757471
2022-10-05T09:12:15.375Z,9.757640
2022-10-05T09:13:15.366Z,9.757624
2022-10-05T09:14:15.371Z,9.757827
2022-10-05T09:15:25.396Z,9.757467
2022-10-05T09:16:17.469Z,9.757370
2022-10-05T09:17:15.324Z,9.757493
2022-10-05T09:18:16.367Z,9.757409
2022-10-05T09:19:15.317Z,9.757629
2022-10-05T09:20:15.314Z,9.757414
2022-10-05T09:21:15.329Z,9.757644
2022-10-05T09:22:15.293Z,9.757413
2022-10-05T09:23:15.276Z,9.757408
2022-10-05T09:24:15.283Z,9.757426
2022-10-05T09:25:15.260Z,9.757468
2022-10-05T09:26:15.319Z,9.757413
2022-10-05T09:27:15.250Z,9.757426
2022-10-05T09:28:15.267Z,9.757477
2022-10-05T09:29:15.230Z,9.757412
2022-10-05T09:30:15.213Z,9.757394
2022-10-05T09:31:16.341Z,9.757399
2022-10-05T09:32:16.592Z,9.757480
2022-10-05T09:33:16.195Z,9.757532
2022-10-05T09:34:15.188Z,9.757356
2022-10-05T09:35:15.177Z,9.757615
2022-10-05T09:36:15.205Z,9.757380
2022-10-05T09:37:15.167Z,9.757373
2022-10-05T09:38:15.150Z,9.757621
2022-10-05T09:39:15.145Z,9.757524
2022-10-05T09:40:15.134Z,9.757519
2022-10-05T09:41:15.127Z,9.757462
2022-10-05T09:42:15.145Z,9.757496
2022-10-05T09:43:15.107Z,9.757403
2022-10-05T09:44:15.101Z,9.757419
2022-10-05T09:45:19.035Z,9.757357
2022-10-05T09:46:17.099Z,9.757359
2022-10-05T09:47:15.107Z,9.757420
2022-10-05T09:48:15.071Z,9.757559
2022-10-05T09:49:15.053Z,9.757483
2022-10-05T09:50:15.047Z,9.757511
2022-10-05T09:51:15.051Z,9.757534
2022-10-05T09:52:18.786Z,9.757442
2022-10-05T09:53:16.031Z,9.757419
2022-10-05T09:54:15.032Z,9.757399
2022-10-05T09:55:15.018Z,9.757429
2022-10-05T09:56:15.067Z,9.757515
2022-10-05T09:57:15.030Z,9.757455
2022-10-05T09:58:14.991Z,9.757473
2022-10-05T09:59:14.983Z,9.757533
2022-10-05T10:00:14.979Z,9.757568
2022-10-05T10:01:32.197Z,9.757456
2022-10-05T10:02:17.244Z,9.757430
2022-10-05T10:03:14.978Z,9.757512
2022-10-05T10:04:14.936Z,9.757463
2022-10-05T10:05:14.951Z,9.757441
2022-10-05T10:06:14.934Z,9.757562
2022-10-05T10:07:14.943Z,9.757463
2022-10-05T10:08:14.899Z,9.757391
2022-10-05T10:09:14.895Z,9.757392
2022-10-05T10:10:14.888Z,9.757379
2022-10-05T10:11:14.878Z,9.757539
2022-10-05T10:12:14.897Z,9.757651
2022-10-05T10:13:14.857Z,9.757500
2022-10-05T10:14:14.855Z,9.757495
2022-10-05T10:15:14.840Z,9.757517
2022-10-05T10:16:14.933Z,9.757596
2022-10-05T10:17:14.857Z,9.757535
2022-10-05T10:18:14.818Z,9.757508
2022-10-05T10:19:14.814Z,9.757611
2022-10-05T10:20:14.802Z,9.757579
2022-10-05T10:21:14.800Z,9.757493
2022-10-05T10:22:14.815Z,9.757485
2022-10-05T10:23:14.778Z,9.757598
2022-10-05T10:24:14.768Z,9.757535
2022-10-05T10:25:14.761Z,9.757551
2022-10-05T10:26:14.752Z,9.757497
2022-10-05T10:27:14.781Z,9.757610
2022-10-05T10:28:14.821Z,9.757606
2022-10-05T10:29:14.780Z,9.757506
2022-10-05T10:30:14.729Z,9.757546
2022-10-05T10:31:14.770Z,9.757593
2022-10-05T10:32:14.731Z,9.757485
2022-10-05T10:33:14.695Z,9.757470
2022-10-05T10:34:14.685Z,9.757494
2022-10-05T10:35:14.685Z,9.757432
2022-10-05T10:36:14.671Z,9.757407
2022-10-05T10:37:14.705Z,9.757402
2022-10-05T10:38:14.655Z,9.757436
2022-10-05T10:39:14.650Z,9.757507
2022-10-05T10:40:14.639Z,9.757457
2022-10-05T10:41:14.640Z,9.757404
2022-10-05T10:42:14.652Z,9.757565
2022-10-05T10:43:14.612Z,9.757391
2022-10-05T10:44:14.615Z,9.757388
2022-10-05T10:45:14.591Z,9.757388
2022-10-05T10:46:14.642Z,9.757564
2022-10-05T10:47:14.626Z,9.757475
2022-10-05T10:48:14.573Z,9.757398
2022-10-05T10:49:14.731Z,9.757548
2022-10-05T10:50:14.547Z,9.757432
2022-10-05T10:51:14.543Z,9.757546
2022-10-05T10:52:14.559Z,9.757349
2022-10-05T10:53:14.529Z,9.757593
2022-10-05T10:54:14.520Z,9.757571
2022-10-05T10:55:14.517Z,9.757464
2022-10-05T10:56:14.505Z,9.757434
2022-10-05T10:57:14.527Z,9.757429
2022-10-05T10:58:16.250Z,9.757364
2022-10-05T10:59:15.493Z,9.757470
2022-10-05T11:00:14.489Z,9.757469
2022-10-05T11:01:14.493Z,9.757443
2022-10-05T11:02:14.566Z,9.757461
2022-10-05T11:03:14.529Z,9.757475
2022-10-05T11:04:14.432Z,9.757422
2022-10-05T11:05:14.428Z,9.757380
2022-10-05T11:06:14.409Z,9.757403
2022-10-05T11:07:14.403Z,9.757468
2022-10-05T11:08:14.433Z,9.757406
2022-10-05T11:09:14.394Z,9.757388
2022-10-05T11:10:14.384Z,9.757447
2022-10-05T11:11:14.390Z,9.757483
2022-10-05T11:12:14.373Z,9.757529
2022-10-05T11:13:14.387Z,9.757546
2022-10-05T11:14:14.358Z,9.757574
2022-10-05T11:15:14.338Z,9.757502
2022-10-05T11:16:17.183Z,9.757466
2022-10-05T11:17:15.329Z,9.757446
2022-10-05T11:18:14.363Z,9.757493
2022-10-05T11:19:14.314Z,9.757496
2022-10-05T11:20:14.304Z,9.757451
2022-10-05T11:21:14.297Z,9.757457
2022-10-05T11:22:14.332Z,9.757467
2022-10-05T11:23:14.308Z,9.757556
2022-10-05T11:24:14.270Z,9.757443
2022-10-05T11:25:14.263Z,9.757567
2022-10-05T11:26:14.270Z,9.757543
2022-10-05T11:27:14.286Z,9.757589
2022-10-05T11:28:14.383Z,9.757478
2022-10-05T11:29:14.231Z,9.757427
2022-10-05T11:30:14.232Z,9.757497
2022-10-05T11:31:14.239Z,9.757415
2022-10-05T11:32:14.203Z,9.757516
2022-10-05T11:33:14.268Z,9.757504
2022-10-05T11:34:14.190Z,9.757543
2022-10-05T11:35:14.181Z,9.757595
2022-10-05T11:36:14.181Z,9.757504
2022-10-05T11:37:14.170Z,9.757497
2022-10-05T11:38:14.184Z,9.757445
2022-10-05T11:39:14.161Z,9.757489
2022-10-05T11:40:14.200Z,9.757491
2022-10-05T11:41:14.134Z,9.757520
2022-10-05T11:42:14.121Z,9.757499
2022-10-05T11:43:14.146Z,9.757476
2022-10-05T11:44:14.102Z,9.757471
2022-10-05T11:45:14.102Z,9.757477
2022-10-05T11:46:14.133Z,9.757481
2022-10-05T11:47:14.084Z,9.757458
2022-10-05T11:48:14.102Z,9.757495
2022-10-05T11:49:14.094Z,9.757518
2022-10-05T11:50:14.117Z,9.757517
2022-10-05T11:51:14.078Z,9.757491
2022-10-05T11:52:14.089Z,9.757510
2022-10-05T11:53:14.068Z,9.757517
2022-10-05T11:54:14.030Z,9.757512
2022-10-05T11:55:14.023Z,9.757501
2022-10-05T11:56:14.008Z,9.757546
2022-10-05T11:57:14.062Z,9.757537
2022-10-05T11:58:14.038Z,9.757537
2022-10-05T11:59:14.029Z,9.757451
2022-10-05T12:00:14.082Z,9.757492
2022-10-05T12:01:14.027Z,9.757516